logo
Rechercher aéroport 
image banner adimage banner adimage banner ad
image banner ad

FALW - Langebaanweg (Mil - Unlicensed)

Situé à Langebaanweg, South Africa

ICAO - FALW, IATA - SDB

Données fournies par Airmate  

Information générale

Coordonnées: S32°58'8" E18°9'55"
Élévation : 108 feet MSL.
Variation magnétique : -25° East
Voir autres Aéroports à Western Cape

Données opérationnelles

Special qualification required
Heure actuelle UTC:
Heure actuelle locale:
Météo
METAR: FALW 191400Z AUTO 20007KT //// // ////// 18/08 Q1021
Voir NOTAMs / SUP AIP / TFR affectant cet aéroport [VIEW]
Fréquences de communication: [VIEW]

Pistes:

Identifiant RWYQFULongueur (ft)Largeur (ft)SurfaceLDA (ft)
02L7680151ASPH7680
20R181°7680151ASPH7680
02R7690151ASPH7690
20L181°7690151ASPH7690
16136°5830144ASPH5830
34316°5830144ASPH5830
0747°4934151ASPH4934
25227°4934151ASPH4934

Coordonnées de l'aéroport

Adresse: Langebaanweg South Africa

Vue satellite de FALW